sensor_id;sensor_type;location;lat;lon;timestamp;P1;durP1;ratioP1;P2;durP2;ratioP2
1054;SDS011;516;51.482;7.120;2023-07-13T00:04:29;14.10;;;13.10;;
1054;SDS011;516;51.482;7.120;2023-07-13T00:10:17;12.97;;;12.00;;
1054;SDS011;516;51.482;7.120;2023-07-13T00:16:06;13.40;;;12.67;;
1054;SDS011;516;51.482;7.120;2023-07-13T00:21:54;13.07;;;12.07;;
1054;SDS011;516;51.482;7.120;2023-07-13T00:27:43;13.00;;;12.30;;
1054;SDS011;516;51.482;7.120;2023-07-13T00:33:31;13.07;;;12.27;;
1054;SDS011;516;51.482;7.120;2023-07-13T00:39:20;12.73;;;11.80;;
1054;SDS011;516;51.482;7.120;2023-07-13T00:50:59;11.20;;;10.70;;
1054;SDS011;516;51.482;7.120;2023-07-13T00:56:49;12.67;;;11.43;;
1054;SDS011;516;51.482;7.120;2023-07-13T01:06:02;11.20;;;10.10;;
1054;SDS011;516;51.482;7.120;2023-07-13T01:11:51;12.67;;;11.77;;
1054;SDS011;516;51.482;7.120;2023-07-13T01:17:38;10.90;;;10.20;;
1054;SDS011;516;51.482;7.120;2023-07-13T01:23:26;11.70;;;11.00;;
1054;SDS011;516;51.482;7.120;2023-07-13T01:29:15;11.30;;;10.57;;
1054;SDS011;516;51.482;7.120;2023-07-13T01:35:03;12.27;;;11.33;;
1054;SDS011;516;51.482;7.120;2023-07-13T01:40:52;12.53;;;11.73;;
1054;SDS011;516;51.482;7.120;2023-07-13T01:46:40;11.47;;;10.67;;
1054;SDS011;516;51.482;7.120;2023-07-13T01:52:28;11.17;;;10.30;;
1054;SDS011;516;51.482;7.120;2023-07-13T01:58:16;10.80;;;10.13;;
1054;SDS011;516;51.482;7.120;2023-07-13T02:03:59;11.10;;;10.30;;
1054;SDS011;516;51.482;7.120;2023-07-13T02:09:47;10.23;;;9.63;;
1054;SDS011;516;51.482;7.120;2023-07-13T02:15:37;10.93;;;10.17;;
1054;SDS011;516;51.482;7.120;2023-07-13T02:21:26;10.90;;;9.97;;
1054;SDS011;516;51.482;7.120;2023-07-13T02:27:14;9.97;;;9.17;;
1054;SDS011;516;51.482;7.120;2023-07-13T02:33:02;9.20;;;8.60;;
1054;SDS011;516;51.482;7.120;2023-07-13T02:38:50;9.80;;;9.30;;
1054;SDS011;516;51.482;7.120;2023-07-13T02:44:38;9.33;;;8.73;;
1054;SDS011;516;51.482;7.120;2023-07-13T02:50:26;9.63;;;9.23;;
1054;SDS011;516;51.482;7.120;2023-07-13T02:56:14;9.00;;;8.20;;
1054;SDS011;516;51.482;7.120;2023-07-13T03:11:53;9.60;;;8.77;;
1054;SDS011;516;51.482;7.120;2023-07-13T03:17:42;9.93;;;9.10;;
1054;SDS011;516;51.482;7.120;2023-07-13T03:23:29;9.00;;;8.60;;
1054;SDS011;516;51.482;7.120;2023-07-13T03:29:17;9.93;;;8.77;;
1054;SDS011;516;51.482;7.120;2023-07-13T03:35:05;9.10;;;8.50;;
1054;SDS011;516;51.482;7.120;2023-07-13T03:40:54;8.47;;;7.77;;
1054;SDS011;516;51.482;7.120;2023-07-13T03:46:42;9.60;;;8.67;;
1054;SDS011;516;51.482;7.120;2023-07-13T03:52:30;15.57;;;8.57;;
1054;SDS011;516;51.482;7.120;2023-07-13T03:58:31;9.60;;;8.70;;
1054;SDS011;516;51.482;7.120;2023-07-13T04:04:45;12.43;;;8.60;;
1054;SDS011;516;51.482;7.120;2023-07-13T04:10:33;9.30;;;8.40;;
1054;SDS011;516;51.482;7.120;2023-07-13T04:16:21;9.50;;;8.90;;
1054;SDS011;516;51.482;7.120;2023-07-13T04:22:09;9.70;;;8.93;;
1054;SDS011;516;51.482;7.120;2023-07-13T04:27:57;8.70;;;8.10;;
1054;SDS011;516;51.482;7.120;2023-07-13T04:33:44;11.00;;;8.77;;
1054;SDS011;516;51.482;7.120;2023-07-13T04:39:32;8.53;;;7.73;;
1054;SDS011;516;51.482;7.120;2023-07-13T04:45:20;9.43;;;8.60;;
1054;SDS011;516;51.482;7.120;2023-07-13T04:51:07;8.60;;;8.00;;
1054;SDS011;516;51.482;7.120;2023-07-13T04:56:55;9.00;;;8.50;;
1054;SDS011;516;51.482;7.120;2023-07-13T05:02:44;8.63;;;8.03;;
1054;SDS011;516;51.482;7.120;2023-07-13T05:08:31;9.33;;;8.40;;
1054;SDS011;516;51.482;7.120;2023-07-13T05:14:19;9.33;;;8.63;;
1054;SDS011;516;51.482;7.120;2023-07-13T05:20:07;10.00;;;9.20;;
1054;SDS011;516;51.482;7.120;2023-07-13T05:25:57;10.67;;;9.97;;
1054;SDS011;516;51.482;7.120;2023-07-13T05:31:45;9.17;;;8.57;;
1054;SDS011;516;51.482;7.120;2023-07-13T05:37:32;9.53;;;8.60;;
1054;SDS011;516;51.482;7.120;2023-07-13T05:43:20;10.63;;;9.20;;
1054;SDS011;516;51.482;7.120;2023-07-13T05:49:09;8.63;;;8.13;;
1054;SDS011;516;51.482;7.120;2023-07-13T05:54:56;9.17;;;8.27;;
1054;SDS011;516;51.482;7.120;2023-07-13T06:00:45;15.20;;;9.00;;
1054;SDS011;516;51.482;7.120;2023-07-13T06:16:22;10.60;;;9.53;;
1054;SDS011;516;51.482;7.120;2023-07-13T06:22:10;9.70;;;8.80;;
1054;SDS011;516;51.482;7.120;2023-07-13T06:27:58;11.60;;;9.47;;
1054;SDS011;516;51.482;7.120;2023-07-13T06:33:46;11.17;;;10.10;;
1054;SDS011;516;51.482;7.120;2023-07-13T06:39:34;9.00;;;8.50;;
1054;SDS011;516;51.482;7.120;2023-07-13T06:45:22;10.53;;;9.63;;
1054;SDS011;516;51.482;7.120;2023-07-13T06:51:10;10.97;;;9.77;;
1054;SDS011;516;51.482;7.120;2023-07-13T06:56:58;12.40;;;10.43;;
1054;SDS011;516;51.482;7.120;2023-07-13T07:02:46;11.13;;;9.37;;
1054;SDS011;516;51.482;7.120;2023-07-13T07:08:32;10.87;;;9.87;;
1054;SDS011;516;51.482;7.120;2023-07-13T07:14:22;13.23;;;11.97;;
1054;SDS011;516;51.482;7.120;2023-07-13T07:20:11;12.07;;;10.87;;
1054;SDS011;516;51.482;7.120;2023-07-13T07:25:42;12.17;;;11.20;;
1054;SDS011;516;51.482;7.120;2023-07-13T07:31:31;13.03;;;11.93;;
1054;SDS011;516;51.482;7.120;2023-07-13T07:37:19;12.93;;;11.77;;
1054;SDS011;516;51.482;7.120;2023-07-13T07:43:09;12.07;;;11.00;;
1054;SDS011;516;51.482;7.120;2023-07-13T07:48:58;13.20;;;11.87;;
1054;SDS011;516;51.482;7.120;2023-07-13T07:54:46;10.80;;;9.93;;
1054;SDS011;516;51.482;7.120;2023-07-13T08:00:35;13.17;;;10.93;;
1054;SDS011;516;51.482;7.120;2023-07-13T08:16:23;13.70;;;12.30;;
1054;SDS011;516;51.482;7.120;2023-07-13T08:22:11;12.53;;;11.63;;
1054;SDS011;516;51.482;7.120;2023-07-13T08:27:59;12.93;;;11.97;;
1054;SDS011;516;51.482;7.120;2023-07-13T08:33:47;13.17;;;12.20;;
1054;SDS011;516;51.482;7.120;2023-07-13T08:39:35;13.57;;;12.20;;
1054;SDS011;516;51.482;7.120;2023-07-13T08:45:24;12.63;;;11.80;;
1054;SDS011;516;51.482;7.120;2023-07-13T08:51:45;13.10;;;12.07;;
1054;SDS011;516;51.482;7.120;2023-07-13T08:57:38;15.57;;;13.40;;
1054;SDS011;516;51.482;7.120;2023-07-13T09:03:42;14.40;;;13.10;;
1054;SDS011;516;51.482;7.120;2023-07-13T09:13:43;12.30;;;11.37;;
1054;SDS011;516;51.482;7.120;2023-07-13T09:19:32;14.20;;;13.10;;
1054;SDS011;516;51.482;7.120;2023-07-13T09:31:49;13.13;;;12.13;;
1054;SDS011;516;51.482;7.120;2023-07-13T09:37:41;14.07;;;13.17;;
1054;SDS011;516;51.482;7.120;2023-07-13T09:43:32;12.93;;;11.70;;
1054;SDS011;516;51.482;7.120;2023-07-13T09:49:25;14.67;;;13.77;;
1054;SDS011;516;51.482;7.120;2023-07-13T09:55:36;15.57;;;14.57;;
1054;SDS011;516;51.482;7.120;2023-07-13T10:01:59;14.67;;;13.53;;
1054;SDS011;516;51.482;7.120;2023-07-13T10:07:47;13.07;;;12.20;;
1054;SDS011;516;51.482;7.120;2023-07-13T10:13:37;13.17;;;12.30;;
1054;SDS011;516;51.482;7.120;2023-07-13T10:22:59;13.10;;;12.20;;
1054;SDS011;516;51.482;7.120;2023-07-13T10:28:51;14.30;;;13.13;;
1054;SDS011;516;51.482;7.120;2023-07-13T10:34:43;13.37;;;12.17;;
1054;SDS011;516;51.482;7.120;2023-07-13T10:46:48;12.97;;;12.13;;
1054;SDS011;516;51.482;7.120;2023-07-13T10:52:47;15.03;;;13.63;;
1054;SDS011;516;51.482;7.120;2023-07-13T10:58:41;15.40;;;14.30;;
1054;SDS011;516;51.482;7.120;2023-07-13T11:04:39;14.10;;;13.00;;
1054;SDS011;516;51.482;7.120;2023-07-13T11:11:32;13.53;;;12.83;;
1054;SDS011;516;51.482;7.120;2023-07-13T11:17:50;13.80;;;13.00;;
1054;SDS011;516;51.482;7.120;2023-07-13T11:30:07;14.80;;;13.83;;
1054;SDS011;516;51.482;7.120;2023-07-13T11:36:24;14.30;;;13.50;;
1054;SDS011;516;51.482;7.120;2023-07-13T11:42:17;14.83;;;14.03;;
1054;SDS011;516;51.482;7.120;2023-07-13T11:48:23;14.40;;;13.40;;
1054;SDS011;516;51.482;7.120;2023-07-13T11:54:17;14.90;;;13.80;;
1054;SDS011;516;51.482;7.120;2023-07-13T12:00:45;15.20;;;14.00;;
1054;SDS011;516;51.482;7.120;2023-07-13T12:06:34;15.27;;;14.50;;
1054;SDS011;516;51.482;7.120;2023-07-13T12:12:28;15.43;;;14.17;;
1054;SDS011;516;51.482;7.120;2023-07-13T12:18:21;14.77;;;13.70;;
1054;SDS011;516;51.482;7.120;2023-07-13T12:24:14;14.80;;;13.87;;
1054;SDS011;516;51.482;7.120;2023-07-13T12:30:05;15.67;;;14.63;;
1054;SDS011;516;51.482;7.120;2023-07-13T12:36:33;15.17;;;13.97;;
1054;SDS011;516;51.482;7.120;2023-07-13T12:48:16;13.10;;;12.50;;
1054;SDS011;516;51.482;7.120;2023-07-13T12:54:17;13.97;;;13.00;;
1054;SDS011;516;51.482;7.120;2023-07-13T13:00:13;13.93;;;12.80;;
1054;SDS011;516;51.482;7.120;2023-07-13T13:06:43;13.90;;;12.90;;
1054;SDS011;516;51.482;7.120;2023-07-13T13:19:26;15.07;;;14.27;;
1054;SDS011;516;51.482;7.120;2023-07-13T13:24:57;14.63;;;13.70;;
1054;SDS011;516;51.482;7.120;2023-07-13T13:30:46;16.33;;;15.17;;
1054;SDS011;516;51.482;7.120;2023-07-13T13:36:35;9.57;;;5.70;;
1054;SDS011;516;51.482;7.120;2023-07-13T13:42:22;8.73;;;7.67;;
1054;SDS011;516;51.482;7.120;2023-07-13T13:48:15;8.83;;;8.00;;
1054;SDS011;516;51.482;7.120;2023-07-13T13:54:08;10.50;;;9.90;;
1054;SDS011;516;51.482;7.120;2023-07-13T14:00:20;10.43;;;9.73;;
1054;SDS011;516;51.482;7.120;2023-07-13T14:06:10;10.77;;;10.00;;
1054;SDS011;516;51.482;7.120;2023-07-13T14:12:00;10.30;;;9.60;;
1054;SDS011;516;51.482;7.120;2023-07-13T14:17:48;11.30;;;10.50;;
1054;SDS011;516;51.482;7.120;2023-07-13T14:26:58;9.20;;;8.50;;
1054;SDS011;516;51.482;7.120;2023-07-13T14:32:46;10.77;;;6.10;;
1054;SDS011;516;51.482;7.120;2023-07-13T14:38:36;9.23;;;6.37;;
1054;SDS011;516;51.482;7.120;2023-07-13T14:44:24;7.00;;;6.00;;
1054;SDS011;516;51.482;7.120;2023-07-13T14:50:18;6.13;;;5.53;;
1054;SDS011;516;51.482;7.120;2023-07-13T14:56:11;7.00;;;6.30;;
1054;SDS011;516;51.482;7.120;2023-07-13T15:02:02;9.07;;;7.10;;
1054;SDS011;516;51.482;7.120;2023-07-13T15:07:50;9.87;;;7.00;;
1054;SDS011;516;51.482;7.120;2023-07-13T15:13:40;8.60;;;8.00;;
1054;SDS011;516;51.482;7.120;2023-07-13T15:19:42;9.53;;;8.73;;
1054;SDS011;516;51.482;7.120;2023-07-13T15:25:30;10.53;;;9.63;;
1054;SDS011;516;51.482;7.120;2023-07-13T15:31:22;13.23;;;9.37;;
1054;SDS011;516;51.482;7.120;2023-07-13T15:37:15;8.60;;;8.00;;
1054;SDS011;516;51.482;7.120;2023-07-13T15:43:04;9.80;;;8.90;;
1054;SDS011;516;51.482;7.120;2023-07-13T15:48:56;10.13;;;9.27;;
1054;SDS011;516;51.482;7.120;2023-07-13T15:54:46;11.00;;;6.53;;
1054;SDS011;516;51.482;7.120;2023-07-13T16:00:34;6.70;;;6.07;;
1054;SDS011;516;51.482;7.120;2023-07-13T16:06:23;8.03;;;6.37;;
1054;SDS011;516;51.482;7.120;2023-07-13T16:12:37;7.00;;;6.30;;
1054;SDS011;516;51.482;7.120;2023-07-13T16:21:47;7.40;;;6.80;;
1054;SDS011;516;51.482;7.120;2023-07-13T16:27:38;10.63;;;7.87;;
1054;SDS011;516;51.482;7.120;2023-07-13T16:33:26;11.53;;;7.27;;
1054;SDS011;516;51.482;7.120;2023-07-13T16:39:15;7.70;;;6.97;;
1054;SDS011;516;51.482;7.120;2023-07-13T16:45:03;10.30;;;9.50;;
1054;SDS011;516;51.482;7.120;2023-07-13T16:50:52;11.87;;;8.03;;
1054;SDS011;516;51.482;7.120;2023-07-13T16:56:42;8.90;;;8.30;;
1054;SDS011;516;51.482;7.120;2023-07-13T17:02:33;9.93;;;9.13;;
1054;SDS011;516;51.482;7.120;2023-07-13T17:08:23;10.00;;;9.10;;
1054;SDS011;516;51.482;7.120;2023-07-13T17:14:16;9.63;;;8.73;;
1054;SDS011;516;51.482;7.120;2023-07-13T17:19:40;11.57;;;10.77;;
1054;SDS011;516;51.482;7.120;2023-07-13T17:25:28;23.43;;;9.93;;
1054;SDS011;516;51.482;7.120;2023-07-13T17:31:19;11.37;;;10.30;;
1054;SDS011;516;51.482;7.120;2023-07-13T17:37:08;11.90;;;10.80;;
1054;SDS011;516;51.482;7.120;2023-07-13T17:43:03;9.07;;;8.37;;
1054;SDS011;516;51.482;7.120;2023-07-13T17:48:53;10.67;;;9.67;;
1054;SDS011;516;51.482;7.120;2023-07-13T17:54:41;10.47;;;9.73;;
1054;SDS011;516;51.482;7.120;2023-07-13T18:00:32;8.23;;;7.53;;
1054;SDS011;516;51.482;7.120;2023-07-13T18:06:25;8.50;;;7.70;;
1054;SDS011;516;51.482;7.120;2023-07-13T18:12:51;11.27;;;8.20;;
1054;SDS011;516;51.482;7.120;2023-07-13T18:22:09;7.10;;;6.50;;
1054;SDS011;516;51.482;7.120;2023-07-13T18:28:35;6.73;;;5.80;;
1054;SDS011;516;51.482;7.120;2023-07-13T18:34:23;5.87;;;5.37;;
1054;SDS011;516;51.482;7.120;2023-07-13T18:40:12;7.17;;;5.50;;
1054;SDS011;516;51.482;7.120;2023-07-13T18:46:11;7.07;;;5.33;;
1054;SDS011;516;51.482;7.120;2023-07-13T18:52:37;8.60;;;5.57;;
1054;SDS011;516;51.482;7.120;2023-07-13T18:58:24;9.40;;;5.67;;
1054;SDS011;516;51.482;7.120;2023-07-13T19:10:13;8.23;;;6.33;;
1054;SDS011;516;51.482;7.120;2023-07-13T19:16:05;10.53;;;6.00;;
1054;SDS011;516;51.482;7.120;2023-07-13T19:21:53;6.67;;;5.50;;
1054;SDS011;516;51.482;7.120;2023-07-13T19:27:44;11.03;;;6.50;;
1054;SDS011;516;51.482;7.120;2023-07-13T19:33:32;7.83;;;7.03;;
1054;SDS011;516;51.482;7.120;2023-07-13T19:39:27;6.50;;;5.90;;
1054;SDS011;516;51.482;7.120;2023-07-13T19:45:20;11.20;;;6.70;;
1054;SDS011;516;51.482;7.120;2023-07-13T19:51:12;13.50;;;6.33;;
1054;SDS011;516;51.482;7.120;2023-07-13T19:57:24;9.87;;;8.87;;
1054;SDS011;516;51.482;7.120;2023-07-13T20:03:14;12.33;;;6.20;;
1054;SDS011;516;51.482;7.120;2023-07-13T20:09:08;11.03;;;6.40;;
1054;SDS011;516;51.482;7.120;2023-07-13T20:15:36;8.00;;;6.10;;
1054;SDS011;516;51.482;7.120;2023-07-13T20:24:46;9.30;;;6.37;;
1054;SDS011;516;51.482;7.120;2023-07-13T20:30:36;7.23;;;6.07;;
1054;SDS011;516;51.482;7.120;2023-07-13T20:36:27;9.63;;;6.77;;
1054;SDS011;516;51.482;7.120;2023-07-13T20:42:15;8.17;;;6.80;;
1054;SDS011;516;51.482;7.120;2023-07-13T20:54:10;9.80;;;6.93;;
1054;SDS011;516;51.482;7.120;2023-07-13T21:00:01;8.37;;;6.97;;
1054;SDS011;516;51.482;7.120;2023-07-13T21:05:49;9.50;;;7.10;;
1054;SDS011;516;51.482;7.120;2023-07-13T21:11:37;8.93;;;7.23;;
1054;SDS011;516;51.482;7.120;2023-07-13T21:17:29;18.17;;;8.10;;
1054;SDS011;516;51.482;7.120;2023-07-13T21:20:15;9.40;;;7.40;;
1054;SDS011;516;51.482;7.120;2023-07-13T21:22:44;12.43;;;7.47;;
1054;SDS011;516;51.482;7.120;2023-07-13T21:28:38;8.43;;;6.53;;
1054;SDS011;516;51.482;7.120;2023-07-13T21:34:27;7.80;;;5.40;;
1054;SDS011;516;51.482;7.120;2023-07-13T21:40:17;17.37;;;8.73;;
1054;SDS011;516;51.482;7.120;2023-07-13T21:46:09;10.57;;;7.00;;
1054;SDS011;516;51.482;7.120;2023-07-13T21:51:59;14.73;;;6.50;;
1054;SDS011;516;51.482;7.120;2023-07-13T21:57:48;11.07;;;7.10;;
1054;SDS011;516;51.482;7.120;2023-07-13T22:03:39;9.43;;;6.00;;
1054;SDS011;516;51.482;7.120;2023-07-13T22:09:27;11.83;;;7.67;;
1054;SDS011;516;51.482;7.120;2023-07-13T22:15:16;25.00;;;7.70;;
1054;SDS011;516;51.482;7.120;2023-07-13T22:24:45;21.53;;;6.90;;
1054;SDS011;516;51.482;7.120;2023-07-13T22:30:35;16.43;;;7.87;;
1054;SDS011;516;51.482;7.120;2023-07-13T22:36:22;12.00;;;6.50;;
1054;SDS011;516;51.482;7.120;2023-07-13T22:42:11;19.17;;;8.70;;
1054;SDS011;516;51.482;7.120;2023-07-13T22:47:59;14.07;;;7.53;;
1054;SDS011;516;51.482;7.120;2023-07-13T22:53:46;8.93;;;7.40;;
1054;SDS011;516;51.482;7.120;2023-07-13T22:59:35;11.03;;;7.10;;
1054;SDS011;516;51.482;7.120;2023-07-13T23:05:24;8.13;;;7.07;;
1054;SDS011;516;51.482;7.120;2023-07-13T23:11:12;15.17;;;8.53;;
1054;SDS011;516;51.482;7.120;2023-07-13T23:17:01;11.30;;;8.13;;
1054;SDS011;516;51.482;7.120;2023-07-13T23:22:40;18.80;;;8.90;;
1054;SDS011;516;51.482;7.120;2023-07-13T23:28:28;17.40;;;8.90;;
1054;SDS011;516;51.482;7.120;2023-07-13T23:34:17;19.37;;;8.30;;
1054;SDS011;516;51.482;7.120;2023-07-13T23:40:12;12.80;;;9.30;;
1054;SDS011;516;51.482;7.120;2023-07-13T23:46:33;10.60;;;7.77;;
1054;SDS011;516;51.482;7.120;2023-07-13T23:52:23;11.27;;;8.57;;
1054;SDS011;516;51.482;7.120;2023-07-13T23:58:11;10.13;;;7.17;;
